sensor_id;sensor_type;location;lat;lon;timestamp;temperature;humidity
46898;DHT22;32646;50.958;6.258;2022-11-04T00:01:02;9.80;99.90
46898;DHT22;32646;50.958;6.258;2022-11-04T00:03:29;9.80;99.90
46898;DHT22;32646;50.958;6.258;2022-11-04T00:05:58;9.90;99.90
46898;DHT22;32646;50.958;6.258;2022-11-04T00:08:25;9.80;99.90
46898;DHT22;32646;50.958;6.258;2022-11-04T00:10:56;9.90;99.90
46898;DHT22;32646;50.958;6.258;2022-11-04T00:13:23;9.90;99.90
46898;DHT22;32646;50.958;6.258;2022-11-04T00:15:49;9.90;99.90
46898;DHT22;32646;50.958;6.258;2022-11-04T00:18:16;10.00;99.90
46898;DHT22;32646;50.958;6.258;2022-11-04T00:20:42;10.10;99.90
46898;DHT22;32646;50.958;6.258;2022-11-04T00:23:09;10.10;99.90
46898;DHT22;32646;50.958;6.258;2022-11-04T00:25:36;10.10;99.90
46898;DHT22;32646;50.958;6.258;2022-11-04T00:28:04;10.10;99.90
46898;DHT22;32646;50.958;6.258;2022-11-04T00:30:32;10.20;99.90
46898;DHT22;32646;50.958;6.258;2022-11-04T00:32:58;10.30;99.90
46898;DHT22;32646;50.958;6.258;2022-11-04T00:35:25;10.40;99.90
46898;DHT22;32646;50.958;6.258;2022-11-04T00:37:51;10.20;99.90
46898;DHT22;32646;50.958;6.258;2022-11-04T00:40:18;10.20;99.90
46898;DHT22;32646;50.958;6.258;2022-11-04T00:42:44;10.20;99.90
46898;DHT22;32646;50.958;6.258;2022-11-04T00:45:11;10.10;99.90
46898;DHT22;32646;50.958;6.258;2022-11-04T00:47:38;10.10;99.90
46898;DHT22;32646;50.958;6.258;2022-11-04T00:50:05;10.00;99.90
46898;DHT22;32646;50.958;6.258;2022-11-04T00:52:32;9.90;99.90
46898;DHT22;32646;50.958;6.258;2022-11-04T00:54:58;9.80;99.90
46898;DHT22;32646;50.958;6.258;2022-11-04T00:57:25;9.80;99.90
46898;DHT22;32646;50.958;6.258;2022-11-04T00:59:51;9.80;99.90
46898;DHT22;32646;50.958;6.258;2022-11-04T01:02:18;9.80;99.90
46898;DHT22;32646;50.958;6.258;2022-11-04T01:04:45;9.70;99.90
46898;DHT22;32646;50.958;6.258;2022-11-04T01:07:12;9.60;99.90
46898;DHT22;32646;50.958;6.258;2022-11-04T01:09:39;9.60;99.90
46898;DHT22;32646;50.958;6.258;2022-11-04T01:12:05;9.60;99.90
46898;DHT22;32646;50.958;6.258;2022-11-04T01:14:32;9.70;99.90
46898;DHT22;32646;50.958;6.258;2022-11-04T01:16:58;9.60;99.90
46898;DHT22;32646;50.958;6.258;2022-11-04T01:19:25;9.60;99.90
46898;DHT22;32646;50.958;6.258;2022-11-04T01:21:51;9.60;99.90
46898;DHT22;32646;50.958;6.258;2022-11-04T01:24:18;9.60;99.90
46898;DHT22;32646;50.958;6.258;2022-11-04T01:26:45;9.60;99.90
46898;DHT22;32646;50.958;6.258;2022-11-04T01:29:11;9.60;99.90
46898;DHT22;32646;50.958;6.258;2022-11-04T01:31:38;9.60;99.90
46898;DHT22;32646;50.958;6.258;2022-11-04T01:34:05;9.50;99.90
46898;DHT22;32646;50.958;6.258;2022-11-04T01:36:31;9.50;99.90
46898;DHT22;32646;50.958;6.258;2022-11-04T01:38:58;9.40;99.90
46898;DHT22;32646;50.958;6.258;2022-11-04T01:41:27;9.30;99.90
46898;DHT22;32646;50.958;6.258;2022-11-04T01:46:47;9.20;99.90
46898;DHT22;32646;50.958;6.258;2022-11-04T01:49:33;9.20;99.90
46898;DHT22;32646;50.958;6.258;2022-11-04T01:52:09;9.20;99.90
46898;DHT22;32646;50.958;6.258;2022-11-04T01:54:39;9.20;99.90
46898;DHT22;32646;50.958;6.258;2022-11-04T01:57:13;9.20;99.90
46898;DHT22;32646;50.958;6.258;2022-11-04T01:59:42;9.20;99.90
46898;DHT22;32646;50.958;6.258;2022-11-04T02:02:09;9.20;99.90
46898;DHT22;32646;50.958;6.258;2022-11-04T02:04:37;9.30;99.90
46898;DHT22;32646;50.958;6.258;2022-11-04T02:07:06;9.30;99.90
46898;DHT22;32646;50.958;6.258;2022-11-04T02:09:35;9.30;99.90
46898;DHT22;32646;50.958;6.258;2022-11-04T02:12:02;9.30;99.90
46898;DHT22;32646;50.958;6.258;2022-11-04T02:14:30;9.30;99.90
46898;DHT22;32646;50.958;6.258;2022-11-04T02:17:29;9.30;99.90
46898;DHT22;32646;50.958;6.258;2022-11-04T02:26:23;9.20;99.90
46898;DHT22;32646;50.958;6.258;2022-11-04T02:32:10;9.10;99.90
46898;DHT22;32646;50.958;6.258;2022-11-04T02:38:07;9.20;99.90
46898;DHT22;32646;50.958;6.258;2022-11-04T02:40:47;9.20;99.90
46898;DHT22;32646;50.958;6.258;2022-11-04T02:43:26;9.20;99.90
46898;DHT22;32646;50.958;6.258;2022-11-04T02:46:33;9.20;99.90
46898;DHT22;32646;50.958;6.258;2022-11-04T02:49:11;9.20;99.90
46898;DHT22;32646;50.958;6.258;2022-11-04T02:54:37;9.40;99.90
46898;DHT22;32646;50.958;6.258;2022-11-04T02:57:03;9.50;99.90
46898;DHT22;32646;50.958;6.258;2022-11-04T02:59:37;9.50;99.90
46898;DHT22;32646;50.958;6.258;2022-11-04T03:02:07;9.40;99.90
46898;DHT22;32646;50.958;6.258;2022-11-04T03:04:46;9.50;99.90
46898;DHT22;32646;50.958;6.258;2022-11-04T03:07:16;9.40;99.90
46898;DHT22;32646;50.958;6.258;2022-11-04T03:09:49;9.40;99.90
46898;DHT22;32646;50.958;6.258;2022-11-04T03:12:19;9.40;99.90
46898;DHT22;32646;50.958;6.258;2022-11-04T03:14:52;9.40;99.90
46898;DHT22;32646;50.958;6.258;2022-11-04T03:17:36;9.30;99.90
46898;DHT22;32646;50.958;6.258;2022-11-04T03:20:07;9.30;99.90
46898;DHT22;32646;50.958;6.258;2022-11-04T03:22:37;9.30;99.90
46898;DHT22;32646;50.958;6.258;2022-11-04T03:25:06;9.30;99.90
46898;DHT22;32646;50.958;6.258;2022-11-04T03:28:01;9.20;99.90
46898;DHT22;32646;50.958;6.258;2022-11-04T03:30:37;9.30;99.90
46898;DHT22;32646;50.958;6.258;2022-11-04T03:33:16;9.30;99.90
46898;DHT22;32646;50.958;6.258;2022-11-04T03:35:44;9.30;99.90
46898;DHT22;32646;50.958;6.258;2022-11-04T03:38:11;9.20;99.90
46898;DHT22;32646;50.958;6.258;2022-11-04T03:40:37;9.20;99.90
46898;DHT22;32646;50.958;6.258;2022-11-04T03:43:10;9.30;99.90
46898;DHT22;32646;50.958;6.258;2022-11-04T03:45:38;9.30;99.90
46898;DHT22;32646;50.958;6.258;2022-11-04T03:48:06;9.30;99.90
46898;DHT22;32646;50.958;6.258;2022-11-04T03:50:39;9.30;99.90
46898;DHT22;32646;50.958;6.258;2022-11-04T03:53:05;9.20;99.90
46898;DHT22;32646;50.958;6.258;2022-11-04T03:58:34;9.20;99.90
46898;DHT22;32646;50.958;6.258;2022-11-04T04:01:32;9.20;99.90
46898;DHT22;32646;50.958;6.258;2022-11-04T04:04:13;9.20;99.90
46898;DHT22;32646;50.958;6.258;2022-11-04T04:06:43;9.20;99.90
46898;DHT22;32646;50.958;6.258;2022-11-04T04:09:18;9.20;99.90
46898;DHT22;32646;50.958;6.258;2022-11-04T04:11:51;9.20;99.90
46898;DHT22;32646;50.958;6.258;2022-11-04T04:14:33;9.20;99.90
46898;DHT22;32646;50.958;6.258;2022-11-04T04:17:03;9.20;99.90
46898;DHT22;32646;50.958;6.258;2022-11-04T04:19:32;9.10;99.90
46898;DHT22;32646;50.958;6.258;2022-11-04T04:22:21;9.00;99.90
46898;DHT22;32646;50.958;6.258;2022-11-04T04:24:51;8.90;99.90
46898;DHT22;32646;50.958;6.258;2022-11-04T04:27:20;8.80;99.90
46898;DHT22;32646;50.958;6.258;2022-11-04T04:29:48;8.80;99.90
46898;DHT22;32646;50.958;6.258;2022-11-04T04:32:15;8.70;99.90
46898;DHT22;32646;50.958;6.258;2022-11-04T04:34:42;8.70;99.90
46898;DHT22;32646;50.958;6.258;2022-11-04T04:37:22;8.60;99.90
46898;DHT22;32646;50.958;6.258;2022-11-04T04:39:56;8.50;99.90
46898;DHT22;32646;50.958;6.258;2022-11-04T04:42:24;8.50;99.90
46898;DHT22;32646;50.958;6.258;2022-11-04T04:44:51;8.40;99.90
46898;DHT22;32646;50.958;6.258;2022-11-04T04:47:21;8.40;99.90
46898;DHT22;32646;50.958;6.258;2022-11-04T04:49:52;8.40;99.90
46898;DHT22;32646;50.958;6.258;2022-11-04T04:52:19;8.50;99.90
46898;DHT22;32646;50.958;6.258;2022-11-04T04:54:47;8.60;99.90
46898;DHT22;32646;50.958;6.258;2022-11-04T04:57:13;8.50;99.90
46898;DHT22;32646;50.958;6.258;2022-11-04T04:59:40;8.50;99.90
46898;DHT22;32646;50.958;6.258;2022-11-04T05:02:06;8.40;99.90
46898;DHT22;32646;50.958;6.258;2022-11-04T05:04:33;8.30;99.90
46898;DHT22;32646;50.958;6.258;2022-11-04T05:07:00;8.30;99.90
46898;DHT22;32646;50.958;6.258;2022-11-04T05:09:26;8.20;99.90
46898;DHT22;32646;50.958;6.258;2022-11-04T05:11:53;8.20;99.90
46898;DHT22;32646;50.958;6.258;2022-11-04T05:14:19;8.10;99.90
46898;DHT22;32646;50.958;6.258;2022-11-04T05:16:46;8.00;99.90
46898;DHT22;32646;50.958;6.258;2022-11-04T05:19:12;8.00;99.90
46898;DHT22;32646;50.958;6.258;2022-11-04T05:21:39;7.90;99.90
46898;DHT22;32646;50.958;6.258;2022-11-04T05:24:05;7.80;99.90
46898;DHT22;32646;50.958;6.258;2022-11-04T05:26:32;7.80;99.90
46898;DHT22;32646;50.958;6.258;2022-11-04T05:28:58;7.70;99.90
46898;DHT22;32646;50.958;6.258;2022-11-04T05:31:25;7.80;99.90
46898;DHT22;32646;50.958;6.258;2022-11-04T05:33:52;7.80;99.90
46898;DHT22;32646;50.958;6.258;2022-11-04T05:36:18;7.70;99.90
46898;DHT22;32646;50.958;6.258;2022-11-04T05:38:49;7.60;99.90
46898;DHT22;32646;50.958;6.258;2022-11-04T05:41:16;7.40;99.90
46898;DHT22;32646;50.958;6.258;2022-11-04T05:43:42;7.20;99.90
46898;DHT22;32646;50.958;6.258;2022-11-04T05:46:09;7.10;99.90
46898;DHT22;32646;50.958;6.258;2022-11-04T05:48:35;7.00;99.90
46898;DHT22;32646;50.958;6.258;2022-11-04T05:51:06;6.90;99.90
46898;DHT22;32646;50.958;6.258;2022-11-04T05:53:32;6.70;99.90
46898;DHT22;32646;50.958;6.258;2022-11-04T05:55:59;6.70;99.90
46898;DHT22;32646;50.958;6.258;2022-11-04T05:58:25;6.70;99.90
46898;DHT22;32646;50.958;6.258;2022-11-04T06:00:52;6.70;99.90
46898;DHT22;32646;50.958;6.258;2022-11-04T06:03:18;6.70;99.90
46898;DHT22;32646;50.958;6.258;2022-11-04T06:05:45;6.70;99.90
46898;DHT22;32646;50.958;6.258;2022-11-04T06:08:12;6.80;99.90
46898;DHT22;32646;50.958;6.258;2022-11-04T06:10:38;6.90;99.90
46898;DHT22;32646;50.958;6.258;2022-11-04T06:13:05;7.00;99.90
46898;DHT22;32646;50.958;6.258;2022-11-04T06:15:31;7.10;99.90
46898;DHT22;32646;50.958;6.258;2022-11-04T06:17:58;7.10;99.90
46898;DHT22;32646;50.958;6.258;2022-11-04T06:20:24;7.10;99.90
46898;DHT22;32646;50.958;6.258;2022-11-04T06:22:51;7.10;99.90
46898;DHT22;32646;50.958;6.258;2022-11-04T06:25:17;7.10;99.90
46898;DHT22;32646;50.958;6.258;2022-11-04T06:27:43;7.10;99.90
46898;DHT22;32646;50.958;6.258;2022-11-04T06:30:10;7.10;99.90
46898;DHT22;32646;50.958;6.258;2022-11-04T06:32:37;7.10;99.90
46898;DHT22;32646;50.958;6.258;2022-11-04T06:35:03;7.10;99.90
46898;DHT22;32646;50.958;6.258;2022-11-04T06:37:30;7.20;99.90
46898;DHT22;32646;50.958;6.258;2022-11-04T06:39:57;7.20;99.90
46898;DHT22;32646;50.958;6.258;2022-11-04T06:42:23;7.20;99.90
46898;DHT22;32646;50.958;6.258;2022-11-04T06:44:49;7.30;99.90
46898;DHT22;32646;50.958;6.258;2022-11-04T06:47:16;7.30;99.90
46898;DHT22;32646;50.958;6.258;2022-11-04T06:49:50;7.40;99.90
46898;DHT22;32646;50.958;6.258;2022-11-04T06:52:16;7.40;99.90
46898;DHT22;32646;50.958;6.258;2022-11-04T06:54:43;7.30;99.90
46898;DHT22;32646;50.958;6.258;2022-11-04T06:57:10;7.30;99.90
46898;DHT22;32646;50.958;6.258;2022-11-04T06:59:36;7.30;99.90
46898;DHT22;32646;50.958;6.258;2022-11-04T07:02:03;7.30;99.90
46898;DHT22;32646;50.958;6.258;2022-11-04T07:04:29;7.30;99.90
46898;DHT22;32646;50.958;6.258;2022-11-04T07:06:56;7.40;99.90
46898;DHT22;32646;50.958;6.258;2022-11-04T07:09:23;7.40;99.90
46898;DHT22;32646;50.958;6.258;2022-11-04T07:11:49;7.40;99.90
46898;DHT22;32646;50.958;6.258;2022-11-04T07:14:16;7.50;99.90
46898;DHT22;32646;50.958;6.258;2022-11-04T07:16:42;7.70;99.90
46898;DHT22;32646;50.958;6.258;2022-11-04T07:19:09;7.80;99.90
46898;DHT22;32646;50.958;6.258;2022-11-04T07:21:35;7.90;99.90
46898;DHT22;32646;50.958;6.258;2022-11-04T07:24:02;8.00;99.90
46898;DHT22;32646;50.958;6.258;2022-11-04T07:26:28;8.10;99.90
46898;DHT22;32646;50.958;6.258;2022-11-04T07:28:55;8.20;99.90
46898;DHT22;32646;50.958;6.258;2022-11-04T07:31:21;8.30;99.90
46898;DHT22;32646;50.958;6.258;2022-11-04T07:33:48;8.30;99.90
46898;DHT22;32646;50.958;6.258;2022-11-04T07:36:15;8.50;99.90
46898;DHT22;32646;50.958;6.258;2022-11-04T07:38:41;8.70;99.90
46898;DHT22;32646;50.958;6.258;2022-11-04T07:41:08;8.90;99.90
46898;DHT22;32646;50.958;6.258;2022-11-04T07:43:35;8.90;99.90
46898;DHT22;32646;50.958;6.258;2022-11-04T07:46:09;9.00;99.90
46898;DHT22;32646;50.958;6.258;2022-11-04T07:48:36;9.10;99.90
46898;DHT22;32646;50.958;6.258;2022-11-04T07:51:05;9.20;99.90
46898;DHT22;32646;50.958;6.258;2022-11-04T07:53:32;9.30;99.90
46898;DHT22;32646;50.958;6.258;2022-11-04T07:56:03;9.40;99.90
46898;DHT22;32646;50.958;6.258;2022-11-04T07:58:29;9.50;99.90
46898;DHT22;32646;50.958;6.258;2022-11-04T08:01:00;9.60;99.90
46898;DHT22;32646;50.958;6.258;2022-11-04T08:03:27;9.60;99.90
46898;DHT22;32646;50.958;6.258;2022-11-04T08:05:59;9.60;99.90
46898;DHT22;32646;50.958;6.258;2022-11-04T08:08:29;9.60;99.90
46898;DHT22;32646;50.958;6.258;2022-11-04T08:11:00;9.60;99.90
46898;DHT22;32646;50.958;6.258;2022-11-04T08:13:28;9.50;99.90
46898;DHT22;32646;50.958;6.258;2022-11-04T08:15:57;9.50;99.90
46898;DHT22;32646;50.958;6.258;2022-11-04T08:18:26;9.60;99.90
46898;DHT22;32646;50.958;6.258;2022-11-04T08:20:52;9.60;99.90
46898;DHT22;32646;50.958;6.258;2022-11-04T08:23:19;9.70;99.90
46898;DHT22;32646;50.958;6.258;2022-11-04T08:25:46;9.70;99.90
46898;DHT22;32646;50.958;6.258;2022-11-04T08:28:13;9.70;99.90
46898;DHT22;32646;50.958;6.258;2022-11-04T08:30:39;9.80;99.90
46898;DHT22;32646;50.958;6.258;2022-11-04T08:33:06;9.80;99.90
46898;DHT22;32646;50.958;6.258;2022-11-04T08:35:34;9.80;99.90
46898;DHT22;32646;50.958;6.258;2022-11-04T08:38:06;9.80;99.90
46898;DHT22;32646;50.958;6.258;2022-11-04T08:40:34;9.80;99.90
46898;DHT22;32646;50.958;6.258;2022-11-04T08:43:02;9.80;99.90
46898;DHT22;32646;50.958;6.258;2022-11-04T08:45:28;9.80;99.90
46898;DHT22;32646;50.958;6.258;2022-11-04T08:47:59;9.70;99.90
46898;DHT22;32646;50.958;6.258;2022-11-04T08:50:31;9.70;99.90
46898;DHT22;32646;50.958;6.258;2022-11-04T08:52:57;9.80;99.90
46898;DHT22;32646;50.958;6.258;2022-11-04T08:55:24;9.80;99.90
46898;DHT22;32646;50.958;6.258;2022-11-04T08:57:50;9.90;99.90
46898;DHT22;32646;50.958;6.258;2022-11-04T09:00:17;10.00;99.90
46898;DHT22;32646;50.958;6.258;2022-11-04T09:02:43;10.10;99.90
46898;DHT22;32646;50.958;6.258;2022-11-04T09:05:10;10.20;99.90
46898;DHT22;32646;50.958;6.258;2022-11-04T09:07:36;10.20;99.90
46898;DHT22;32646;50.958;6.258;2022-11-04T09:10:04;10.30;99.90
46898;DHT22;32646;50.958;6.258;2022-11-04T09:12:30;10.30;99.90
46898;DHT22;32646;50.958;6.258;2022-11-04T09:14:57;10.40;99.90
46898;DHT22;32646;50.958;6.258;2022-11-04T09:17:23;10.30;99.90
46898;DHT22;32646;50.958;6.258;2022-11-04T09:19:50;10.40;99.90
46898;DHT22;32646;50.958;6.258;2022-11-04T09:22:16;10.30;99.90
46898;DHT22;32646;50.958;6.258;2022-11-04T09:24:43;10.10;99.90
46898;DHT22;32646;50.958;6.258;2022-11-04T09:27:09;10.00;99.90
46898;DHT22;32646;50.958;6.258;2022-11-04T09:29:36;9.90;99.90
46898;DHT22;32646;50.958;6.258;2022-11-04T09:32:03;9.80;99.90
46898;DHT22;32646;50.958;6.258;2022-11-04T09:34:30;9.70;99.90
46898;DHT22;32646;50.958;6.258;2022-11-04T09:36:56;9.70;99.90
46898;DHT22;32646;50.958;6.258;2022-11-04T09:39:24;9.60;99.90
46898;DHT22;32646;50.958;6.258;2022-11-04T09:44:56;9.50;99.90
46898;DHT22;32646;50.958;6.258;2022-11-04T09:47:47;9.60;99.90
46898;DHT22;32646;50.958;6.258;2022-11-04T09:50:20;9.80;99.90
46898;DHT22;32646;50.958;6.258;2022-11-04T09:52:55;9.90;99.90
46898;DHT22;32646;50.958;6.258;2022-11-04T09:55:34;9.80;99.90
46898;DHT22;32646;50.958;6.258;2022-11-04T09:58:04;9.90;99.90
46898;DHT22;32646;50.958;6.258;2022-11-04T10:00:32;10.00;99.90
46898;DHT22;32646;50.958;6.258;2022-11-04T10:05:56;10.40;99.90
46898;DHT22;32646;50.958;6.258;2022-11-04T10:08:33;10.50;99.90
46898;DHT22;32646;50.958;6.258;2022-11-04T10:14:26;11.10;99.90
46898;DHT22;32646;50.958;6.258;2022-11-04T10:22:57;11.20;99.90
46898;DHT22;32646;50.958;6.258;2022-11-04T10:25:33;11.20;99.90
46898;DHT22;32646;50.958;6.258;2022-11-04T10:28:04;11.30;99.90
46898;DHT22;32646;50.958;6.258;2022-11-04T10:30:35;11.50;99.90
46898;DHT22;32646;50.958;6.258;2022-11-04T10:33:10;12.00;99.90
46898;DHT22;32646;50.958;6.258;2022-11-04T10:35:48;12.10;99.90
46898;DHT22;32646;50.958;6.258;2022-11-04T10:40:55;13.10;99.90
46898;DHT22;32646;50.958;6.258;2022-11-04T10:43:34;13.70;99.90
46898;DHT22;32646;50.958;6.258;2022-11-04T10:46:04;14.30;99.90
46898;DHT22;32646;50.958;6.258;2022-11-04T10:48:49;14.60;99.90
46898;DHT22;32646;50.958;6.258;2022-11-04T10:51:17;15.50;99.90
46898;DHT22;32646;50.958;6.258;2022-11-04T10:53:44;16.20;99.90
46898;DHT22;32646;50.958;6.258;2022-11-04T10:58:45;16.40;99.90
46898;DHT22;32646;50.958;6.258;2022-11-04T11:01:26;16.90;99.90
46898;DHT22;32646;50.958;6.258;2022-11-04T11:03:53;17.40;98.60
46898;DHT22;32646;50.958;6.258;2022-11-04T11:06:28;16.70;99.90
46898;DHT22;32646;50.958;6.258;2022-11-04T11:09:49;15.80;99.90
46898;DHT22;32646;50.958;6.258;2022-11-04T11:12:23;15.30;99.90
46898;DHT22;32646;50.958;6.258;2022-11-04T11:15:31;14.50;99.90
46898;DHT22;32646;50.958;6.258;2022-11-04T11:18:17;14.30;99.90
46898;DHT22;32646;50.958;6.258;2022-11-04T11:21:05;14.40;99.90
46898;DHT22;32646;50.958;6.258;2022-11-04T11:23:36;14.00;99.90
46898;DHT22;32646;50.958;6.258;2022-11-04T11:26:05;14.70;99.90
46898;DHT22;32646;50.958;6.258;2022-11-04T11:28:33;14.90;99.90
46898;DHT22;32646;50.958;6.258;2022-11-04T11:31:01;14.80;99.90
46898;DHT22;32646;50.958;6.258;2022-11-04T11:33:32;14.70;99.90
46898;DHT22;32646;50.958;6.258;2022-11-04T11:36:01;14.60;99.90
46898;DHT22;32646;50.958;6.258;2022-11-04T11:38:32;14.30;99.90
46898;DHT22;32646;50.958;6.258;2022-11-04T11:41:05;14.10;99.90
46898;DHT22;32646;50.958;6.258;2022-11-04T11:43:54;13.80;99.90
46898;DHT22;32646;50.958;6.258;2022-11-04T11:46:30;13.60;99.90
46898;DHT22;32646;50.958;6.258;2022-11-04T11:49:00;13.30;99.90
46898;DHT22;32646;50.958;6.258;2022-11-04T11:51:33;13.20;99.90
46898;DHT22;32646;50.958;6.258;2022-11-04T11:54:19;13.00;99.90
46898;DHT22;32646;50.958;6.258;2022-11-04T11:56:50;12.90;99.90
46898;DHT22;32646;50.958;6.258;2022-11-04T11:59:42;12.90;99.90
46898;DHT22;32646;50.958;6.258;2022-11-04T12:05:20;12.90;99.90
46898;DHT22;32646;50.958;6.258;2022-11-04T12:11:27;13.40;99.90
46898;DHT22;32646;50.958;6.258;2022-11-04T12:14:02;13.50;99.90
46898;DHT22;32646;50.958;6.258;2022-11-04T12:25:12;14.50;99.90
46898;DHT22;32646;50.958;6.258;2022-11-04T12:39:18;13.90;99.90
46898;DHT22;32646;50.958;6.258;2022-11-04T12:47:46;13.40;99.90
46898;DHT22;32646;50.958;6.258;2022-11-04T12:52:58;12.80;99.90
46898;DHT22;32646;50.958;6.258;2022-11-04T12:55:41;12.70;99.90
46898;DHT22;32646;50.958;6.258;2022-11-04T13:01:02;12.30;99.90
46898;DHT22;32646;50.958;6.258;2022-11-04T13:03:35;12.10;99.90
46898;DHT22;32646;50.958;6.258;2022-11-04T13:06:11;12.00;99.90
46898;DHT22;32646;50.958;6.258;2022-11-04T13:08:50;12.10;99.90
46898;DHT22;32646;50.958;6.258;2022-11-04T13:13:45;12.00;99.90
46898;DHT22;32646;50.958;6.258;2022-11-04T13:16:12;12.00;99.90
46898;DHT22;32646;50.958;6.258;2022-11-04T13:18:40;12.00;99.90
46898;DHT22;32646;50.958;6.258;2022-11-04T13:21:14;12.00;99.90
46898;DHT22;32646;50.958;6.258;2022-11-04T13:23:58;11.90;99.90
46898;DHT22;32646;50.958;6.258;2022-11-04T13:26:26;11.90;99.90
46898;DHT22;32646;50.958;6.258;2022-11-04T13:29:14;11.80;99.90
46898;DHT22;32646;50.958;6.258;2022-11-04T13:37:38;11.60;99.90
46898;DHT22;32646;50.958;6.258;2022-11-04T13:45:21;11.20;99.90
46898;DHT22;32646;50.958;6.258;2022-11-04T13:47:53;11.10;99.90
46898;DHT22;32646;50.958;6.258;2022-11-04T13:50:37;11.10;99.90
46898;DHT22;32646;50.958;6.258;2022-11-04T13:53:06;11.10;99.90
46898;DHT22;32646;50.958;6.258;2022-11-04T13:55:39;11.10;99.90
46898;DHT22;32646;50.958;6.258;2022-11-04T13:58:22;11.10;99.90
46898;DHT22;32646;50.958;6.258;2022-11-04T14:03:53;11.20;99.90
46898;DHT22;32646;50.958;6.258;2022-11-04T14:06:55;11.30;99.90
46898;DHT22;32646;50.958;6.258;2022-11-04T14:09:36;11.20;99.90
46898;DHT22;32646;50.958;6.258;2022-11-04T14:14:46;11.00;99.90
46898;DHT22;32646;50.958;6.258;2022-11-04T14:22:45;11.10;99.90
46898;DHT22;32646;50.958;6.258;2022-11-04T14:27:47;11.20;99.90
46898;DHT22;32646;50.958;6.258;2022-11-04T14:30:33;11.20;99.90
46898;DHT22;32646;50.958;6.258;2022-11-04T14:33:06;11.10;99.90
46898;DHT22;32646;50.958;6.258;2022-11-04T14:35:34;11.00;99.90
46898;DHT22;32646;50.958;6.258;2022-11-04T14:38:06;11.00;99.90
46898;DHT22;32646;50.958;6.258;2022-11-04T14:41:13;11.00;99.90
46898;DHT22;32646;50.958;6.258;2022-11-04T14:43:42;10.90;99.90
46898;DHT22;32646;50.958;6.258;2022-11-04T14:46:11;10.90;99.90
46898;DHT22;32646;50.958;6.258;2022-11-04T14:48:45;10.80;99.90
46898;DHT22;32646;50.958;6.258;2022-11-04T14:51:38;10.80;99.90
46898;DHT22;32646;50.958;6.258;2022-11-04T14:54:14;10.80;99.90
46898;DHT22;32646;50.958;6.258;2022-11-04T14:56:44;10.80;99.90
46898;DHT22;32646;50.958;6.258;2022-11-04T14:59:19;10.70;99.90
46898;DHT22;32646;50.958;6.258;2022-11-04T15:01:47;10.70;99.90
46898;DHT22;32646;50.958;6.258;2022-11-04T15:04:28;10.70;99.90
46898;DHT22;32646;50.958;6.258;2022-11-04T15:07:03;10.70;99.90
46898;DHT22;32646;50.958;6.258;2022-11-04T15:09:33;10.70;99.90
46898;DHT22;32646;50.958;6.258;2022-11-04T15:12:09;10.60;99.90
46898;DHT22;32646;50.958;6.258;2022-11-04T15:14:36;10.60;99.90
46898;DHT22;32646;50.958;6.258;2022-11-04T15:17:03;10.60;99.90
46898;DHT22;32646;50.958;6.258;2022-11-04T15:19:34;10.60;99.90
46898;DHT22;32646;50.958;6.258;2022-11-04T15:22:04;10.50;99.90
46898;DHT22;32646;50.958;6.258;2022-11-04T15:24:31;10.60;99.90
46898;DHT22;32646;50.958;6.258;2022-11-04T15:27:03;10.50;99.90
46898;DHT22;32646;50.958;6.258;2022-11-04T15:29:31;10.50;99.90
46898;DHT22;32646;50.958;6.258;2022-11-04T15:32:02;10.50;99.90
46898;DHT22;32646;50.958;6.258;2022-11-04T15:34:31;10.60;99.90
46898;DHT22;32646;50.958;6.258;2022-11-04T15:37:01;10.50;99.90
46898;DHT22;32646;50.958;6.258;2022-11-04T15:39:31;10.50;99.90
46898;DHT22;32646;50.958;6.258;2022-11-04T15:42:02;10.50;99.90
46898;DHT22;32646;50.958;6.258;2022-11-04T15:44:33;10.50;99.90
46898;DHT22;32646;50.958;6.258;2022-11-04T15:47:03;10.50;99.90
46898;DHT22;32646;50.958;6.258;2022-11-04T15:49:46;10.40;99.90
46898;DHT22;32646;50.958;6.258;2022-11-04T15:52:22;10.50;99.90
46898;DHT22;32646;50.958;6.258;2022-11-04T15:54:51;10.40;99.90
46898;DHT22;32646;50.958;6.258;2022-11-04T15:57:21;10.50;99.90
46898;DHT22;32646;50.958;6.258;2022-11-04T16:02:46;10.40;99.90
46898;DHT22;32646;50.958;6.258;2022-11-04T16:05:24;10.40;99.90
46898;DHT22;32646;50.958;6.258;2022-11-04T16:07:53;10.40;99.90
46898;DHT22;32646;50.958;6.258;2022-11-04T16:12:53;10.20;99.90
46898;DHT22;32646;50.958;6.258;2022-11-04T16:15:37;10.10;99.90
46898;DHT22;32646;50.958;6.258;2022-11-04T16:20:51;10.00;99.90
46898;DHT22;32646;50.958;6.258;2022-11-04T16:23:20;9.90;99.90
46898;DHT22;32646;50.958;6.258;2022-11-04T16:25:55;9.90;99.90
46898;DHT22;32646;50.958;6.258;2022-11-04T16:28:23;9.90;99.90
46898;DHT22;32646;50.958;6.258;2022-11-04T16:31:01;10.00;99.90
46898;DHT22;32646;50.958;6.258;2022-11-04T16:33:29;10.10;99.90
46898;DHT22;32646;50.958;6.258;2022-11-04T16:35:55;10.10;99.90
46898;DHT22;32646;50.958;6.258;2022-11-04T16:38:22;10.00;99.90
46898;DHT22;32646;50.958;6.258;2022-11-04T16:40:49;10.00;99.90
46898;DHT22;32646;50.958;6.258;2022-11-04T16:43:18;9.90;99.90
46898;DHT22;32646;50.958;6.258;2022-11-04T16:45:46;9.90;99.90
46898;DHT22;32646;50.958;6.258;2022-11-04T16:48:19;9.90;99.90
46898;DHT22;32646;50.958;6.258;2022-11-04T16:50:46;9.90;99.90
46898;DHT22;32646;50.958;6.258;2022-11-04T16:53:13;9.90;99.90
46898;DHT22;32646;50.958;6.258;2022-11-04T16:55:40;9.90;99.90
46898;DHT22;32646;50.958;6.258;2022-11-04T16:58:14;9.90;99.90
46898;DHT22;32646;50.958;6.258;2022-11-04T17:00:42;9.80;99.90
46898;DHT22;32646;50.958;6.258;2022-11-04T17:03:14;9.80;99.90
46898;DHT22;32646;50.958;6.258;2022-11-04T17:05:40;9.70;99.90
46898;DHT22;32646;50.958;6.258;2022-11-04T17:08:08;9.70;99.90
46898;DHT22;32646;50.958;6.258;2022-11-04T17:10:35;9.80;99.90
46898;DHT22;32646;50.958;6.258;2022-11-04T17:13:02;9.80;99.90
46898;DHT22;32646;50.958;6.258;2022-11-04T17:15:28;9.80;99.90
46898;DHT22;32646;50.958;6.258;2022-11-04T17:17:55;9.80;99.90
46898;DHT22;32646;50.958;6.258;2022-11-04T17:20:21;9.80;99.90
46898;DHT22;32646;50.958;6.258;2022-11-04T17:22:48;9.80;99.90
46898;DHT22;32646;50.958;6.258;2022-11-04T17:25:18;9.70;99.90
46898;DHT22;32646;50.958;6.258;2022-11-04T17:27:45;9.80;99.90
46898;DHT22;32646;50.958;6.258;2022-11-04T17:30:12;9.80;99.90
46898;DHT22;32646;50.958;6.258;2022-11-04T17:32:40;9.80;99.90
46898;DHT22;32646;50.958;6.258;2022-11-04T17:35:07;9.80;99.90
46898;DHT22;32646;50.958;6.258;2022-11-04T17:37:33;9.80;99.90
46898;DHT22;32646;50.958;6.258;2022-11-04T17:40:00;9.80;99.90
46898;DHT22;32646;50.958;6.258;2022-11-04T17:42:26;9.80;99.90
46898;DHT22;32646;50.958;6.258;2022-11-04T17:44:53;9.80;99.90
46898;DHT22;32646;50.958;6.258;2022-11-04T17:47:20;9.80;99.90
46898;DHT22;32646;50.958;6.258;2022-11-04T17:49:46;9.70;99.90
46898;DHT22;32646;50.958;6.258;2022-11-04T17:52:13;9.60;99.90
46898;DHT22;32646;50.958;6.258;2022-11-04T17:54:40;9.60;99.90
46898;DHT22;32646;50.958;6.258;2022-11-04T17:57:06;9.60;99.90